Waianae, Hawaii
Current Conditions -  °F | °C
As of 2:58 AM on Monday 24 Nov 2014 (Local Time) from PHHI Reporting Station
Broken Clouds Broken Clouds  
Wind Chill: 71°   Ceiling: 3700
Heat Index: 71°   Visibility: 10mi
Dew Point: 65°   Wind: 2mph
Humidity: 81%   Direction: NA
Pressure: 29.88"   Gusts: NA
Location:  21.45°N, 158.19°W
Report Text: PHHI 241258Z AUTO VRB02KT 10SM BKN037 BKN045 22/18 A2988 RMK AO2 SLP108 T02160183 $
Loading
Personal Weather Stations






























Interactive Weather Map New forecast layout! Learn more

10-Day Weather Forecast

Advertisements
Track Severe Weather on mobile